createdAt,value
2018-07-03T00:05:47.653Z,0
2018-07-03T00:16:03.258Z,0
2018-07-03T00:26:18.218Z,0
2018-07-03T00:36:32.870Z,0
2018-07-03T00:46:47.667Z,0
2018-07-03T00:57:01.891Z,0
2018-07-03T01:07:15.878Z,0
2018-07-03T01:17:30.370Z,0
2018-07-03T01:27:44.422Z,0
2018-07-03T01:37:59.564Z,0
2018-07-03T01:48:14.403Z,0
2018-07-03T01:58:29.501Z,0
2018-07-03T02:08:44.648Z,0
2018-07-03T02:18:58.730Z,0
2018-07-03T02:29:12.712Z,0
2018-07-03T02:39:29.771Z,0
2018-07-03T02:49:44.565Z,0
2018-07-03T02:59:59.210Z,0
2018-07-03T03:10:13.460Z,5
2018-07-03T03:20:27.231Z,15
2018-07-03T03:30:42.356Z,25
2018-07-03T03:40:57.295Z,40
2018-07-03T03:51:11.052Z,55
2018-07-03T04:01:25.828Z,70
2018-07-03T04:11:40.499Z,85
2018-07-03T04:21:55.461Z,90
2018-07-03T04:32:10.237Z,105
2018-07-03T04:42:24.783Z,125
2018-07-03T04:52:39.553Z,135
2018-07-03T05:02:54.885Z,140
2018-07-03T05:13:10.593Z,150
2018-07-03T05:23:24.908Z,155
2018-07-03T05:33:40.362Z,160
2018-07-03T05:43:55.661Z,170
2018-07-03T05:54:11.211Z,175
2018-07-03T06:04:26.331Z,210
2018-07-03T06:14:41.028Z,470
2018-07-03T06:24:55.358Z,2085
2018-07-03T06:35:10.710Z,1435
2018-07-03T06:45:26.298Z,1120
2018-07-03T06:55:40.685Z,1445
2018-07-03T07:05:56.154Z,990
2018-07-03T07:16:10.915Z,1115
2018-07-03T07:26:25.717Z,2145
2018-07-03T07:36:39.583Z,1350
2018-07-03T07:46:54.043Z,1355
2018-07-03T07:57:08.601Z,1420
2018-07-03T08:07:22.405Z,1555
2018-07-03T08:17:36.878Z,1555
2018-07-03T08:27:52.124Z,1545
2018-07-03T08:38:07.162Z,1655
2018-07-03T08:48:22.640Z,1670
2018-07-03T08:58:37.419Z,1670
2018-07-03T09:08:52.659Z,1855
2018-07-03T09:19:07.385Z,1845
2018-07-03T09:29:22.368Z,2040
2018-07-03T09:39:37.599Z,1880
2018-07-03T09:49:52.256Z,1995
2018-07-03T10:00:06.869Z,1965
2018-07-03T10:10:22.761Z,1985
2018-07-03T10:20:37.350Z,2025
2018-07-03T10:30:52.027Z,1990
2018-07-03T10:41:07.068Z,2035
2018-07-03T10:51:22.930Z,2100
2018-07-03T11:01:37.314Z,2150
2018-07-03T11:11:51.857Z,2095
2018-07-03T11:22:06.491Z,2270
2018-07-03T11:32:21.505Z,2015
2018-07-03T11:42:36.655Z,2070
2018-07-03T11:52:51.480Z,2030
2018-07-03T12:03:05.509Z,2220
2018-07-03T12:13:21.220Z,2180
2018-07-03T12:23:35.173Z,2085
2018-07-03T12:33:51.065Z,1910
2018-07-03T12:44:06.569Z,1945
2018-07-03T12:54:22.024Z,1925
2018-07-03T13:04:37.548Z,1740
2018-07-03T13:14:51.679Z,1585
2018-07-03T13:25:06.292Z,1430
2018-07-03T13:35:21.619Z,1260
2018-07-03T13:45:35.968Z,1100
2018-07-03T13:55:50.971Z,970
2018-07-03T14:06:05.614Z,1165
2018-07-03T14:16:21.090Z,1355
2018-07-03T14:26:35.923Z,2375
2018-07-03T14:36:50.841Z,2755
2018-07-03T14:47:06.014Z,2115
2018-07-03T14:57:21.109Z,1910
2018-07-03T15:07:36.378Z,1885
2018-07-03T15:17:50.766Z,1890
2018-07-03T15:28:06.676Z,1665
2018-07-03T15:38:22.357Z,1650
2018-07-03T15:48:37.933Z,1460
2018-07-03T15:58:52.019Z,1410
2018-07-03T16:09:06.593Z,1345
2018-07-03T16:19:21.538Z,1340
2018-07-03T16:29:37.203Z,950
2018-07-03T16:39:52.401Z,1470
2018-07-03T16:50:07.353Z,425
2018-07-03T17:00:22.062Z,355
2018-07-03T17:10:37.638Z,325
2018-07-03T17:20:52.017Z,295
2018-07-03T17:31:06.386Z,280
2018-07-03T17:41:21.653Z,265
2018-07-03T17:51:37.369Z,245
2018-07-03T18:01:51.335Z,170
2018-07-03T18:12:07.000Z,155
2018-07-03T18:22:20.805Z,140
2018-07-03T18:32:36.494Z,130
2018-07-03T18:42:52.291Z,110
2018-07-03T18:53:07.213Z,100
2018-07-03T19:03:21.527Z,80
2018-07-03T19:13:36.954Z,65
2018-07-03T19:23:51.276Z,45
2018-07-03T19:34:06.162Z,30
2018-07-03T19:44:21.050Z,20
2018-07-03T19:54:36.564Z,10
2018-07-03T20:04:52.399Z,0
2018-07-03T20:15:06.370Z,0
2018-07-03T20:25:20.323Z,0
2018-07-03T20:35:35.919Z,0
2018-07-03T20:45:51.446Z,0
2018-07-03T20:56:05.940Z,0
2018-07-03T21:06:21.110Z,0
2018-07-03T21:16:35.592Z,0
2018-07-03T21:26:49.654Z,0
2018-07-03T21:37:03.825Z,0
2018-07-03T21:47:18.945Z,0
2018-07-03T21:57:32.948Z,0
2018-07-03T22:07:48.371Z,0
2018-07-03T22:18:02.774Z,0
2018-07-03T22:28:18.381Z,0
2018-07-03T22:38:33.919Z,0
2018-07-03T22:48:48.026Z,0
2018-07-03T22:59:03.137Z,0
2018-07-03T23:09:17.993Z,0
2018-07-03T23:19:31.620Z,0
2018-07-03T23:29:45.699Z,0
2018-07-03T23:40:01.068Z,0
2018-07-03T23:50:14.994Z,0
